sensor_id;sensor_type;location;lat;lon;timestamp;P1;durP1;ratioP1;P2;durP2;ratioP2
60336;SDS011;46978;50.288;28.624;2023-10-09T00:00:24;4.20;;;1.71;;
60336;SDS011;46978;50.288;28.624;2023-10-09T00:01:27;4.01;;;1.82;;
60336;SDS011;46978;50.288;28.624;2023-10-09T00:02:29;3.19;;;1.19;;
60336;SDS011;46978;50.288;28.624;2023-10-09T00:03:31;3.47;;;1.50;;
60336;SDS011;46978;50.288;28.624;2023-10-09T00:04:33;5.80;;;1.89;;
60336;SDS011;46978;50.288;28.624;2023-10-09T00:05:35;2.99;;;1.70;;
60336;SDS011;46978;50.288;28.624;2023-10-09T00:06:37;5.23;;;1.61;;
60336;SDS011;46978;50.288;28.624;2023-10-09T00:07:39;3.16;;;1.45;;
60336;SDS011;46978;50.288;28.624;2023-10-09T00:08:40;3.13;;;1.30;;
60336;SDS011;46978;50.288;28.624;2023-10-09T00:09:42;4.04;;;1.77;;
60336;SDS011;46978;50.288;28.624;2023-10-09T00:10:45;4.19;;;1.36;;
60336;SDS011;46978;50.288;28.624;2023-10-09T00:11:46;3.27;;;1.42;;
60336;SDS011;46978;50.288;28.624;2023-10-09T00:12:48;4.00;;;1.04;;
60336;SDS011;46978;50.288;28.624;2023-10-09T00:13:50;4.81;;;1.83;;
60336;SDS011;46978;50.288;28.624;2023-10-09T00:14:51;3.84;;;1.53;;
60336;SDS011;46978;50.288;28.624;2023-10-09T00:15:54;5.95;;;1.71;;
60336;SDS011;46978;50.288;28.624;2023-10-09T00:16:56;2.32;;;1.17;;
60336;SDS011;46978;50.288;28.624;2023-10-09T00:17:58;5.30;;;1.53;;
60336;SDS011;46978;50.288;28.624;2023-10-09T00:19:04;3.06;;;1.10;;
60336;SDS011;46978;50.288;28.624;2023-10-09T00:20:08;3.14;;;1.19;;
60336;SDS011;46978;50.288;28.624;2023-10-09T00:21:13;3.00;;;1.10;;
60336;SDS011;46978;50.288;28.624;2023-10-09T00:22:18;4.06;;;1.21;;
60336;SDS011;46978;50.288;28.624;2023-10-09T00:23:20;2.69;;;1.07;;
60336;SDS011;46978;50.288;28.624;2023-10-09T00:24:21;3.61;;;1.57;;
60336;SDS011;46978;50.288;28.624;2023-10-09T00:25:23;4.24;;;1.50;;
60336;SDS011;46978;50.288;28.624;2023-10-09T00:26:25;7.95;;;1.46;;
60336;SDS011;46978;50.288;28.624;2023-10-09T00:27:27;3.85;;;1.23;;
60336;SDS011;46978;50.288;28.624;2023-10-09T00:28:29;3.27;;;1.19;;
60336;SDS011;46978;50.288;28.624;2023-10-09T00:29:31;5.59;;;1.31;;
60336;SDS011;46978;50.288;28.624;2023-10-09T00:30:33;4.17;;;1.13;;
60336;SDS011;46978;50.288;28.624;2023-10-09T00:31:35;3.97;;;1.22;;
60336;SDS011;46978;50.288;28.624;2023-10-09T00:32:37;2.38;;;1.17;;
60336;SDS011;46978;50.288;28.624;2023-10-09T00:33:38;3.33;;;1.27;;
60336;SDS011;46978;50.288;28.624;2023-10-09T00:34:40;3.27;;;1.03;;
60336;SDS011;46978;50.288;28.624;2023-10-09T00:35:42;4.69;;;1.39;;
60336;SDS011;46978;50.288;28.624;2023-10-09T00:36:44;7.70;;;1.51;;
60336;SDS011;46978;50.288;28.624;2023-10-09T00:37:48;3.21;;;1.09;;
60336;SDS011;46978;50.288;28.624;2023-10-09T00:38:49;3.27;;;1.15;;
60336;SDS011;46978;50.288;28.624;2023-10-09T00:39:51;4.00;;;1.74;;
60336;SDS011;46978;50.288;28.624;2023-10-09T00:40:54;3.58;;;1.09;;
60336;SDS011;46978;50.288;28.624;2023-10-09T00:41:55;4.43;;;1.19;;
60336;SDS011;46978;50.288;28.624;2023-10-09T00:42:58;2.26;;;1.01;;
60336;SDS011;46978;50.288;28.624;2023-10-09T00:44:01;4.42;;;1.57;;
60336;SDS011;46978;50.288;28.624;2023-10-09T00:45:03;4.93;;;1.28;;
60336;SDS011;46978;50.288;28.624;2023-10-09T00:46:05;6.27;;;2.37;;
60336;SDS011;46978;50.288;28.624;2023-10-09T00:47:12;4.32;;;2.10;;
60336;SDS011;46978;50.288;28.624;2023-10-09T00:48:13;4.09;;;1.38;;
60336;SDS011;46978;50.288;28.624;2023-10-09T00:49:15;3.46;;;1.10;;
60336;SDS011;46978;50.288;28.624;2023-10-09T00:50:17;3.65;;;1.44;;
60336;SDS011;46978;50.288;28.624;2023-10-09T00:51:19;3.21;;;1.25;;
60336;SDS011;46978;50.288;28.624;2023-10-09T00:52:21;2.57;;;1.03;;
60336;SDS011;46978;50.288;28.624;2023-10-09T00:53:23;3.04;;;1.12;;
60336;SDS011;46978;50.288;28.624;2023-10-09T00:54:25;3.30;;;1.15;;
60336;SDS011;46978;50.288;28.624;2023-10-09T00:55:27;2.21;;;0.88;;
60336;SDS011;46978;50.288;28.624;2023-10-09T00:56:31;2.54;;;0.94;;
60336;SDS011;46978;50.288;28.624;2023-10-09T00:57:33;3.79;;;0.86;;
60336;SDS011;46978;50.288;28.624;2023-10-09T01:00:00;2.64;;;0.90;;
60336;SDS011;46978;50.288;28.624;2023-10-09T01:01:02;3.55;;;1.35;;
60336;SDS011;46978;50.288;28.624;2023-10-09T01:02:03;2.07;;;1.10;;
60336;SDS011;46978;50.288;28.624;2023-10-09T01:03:05;1.91;;;0.68;;
60336;SDS011;46978;50.288;28.624;2023-10-09T01:04:07;3.41;;;1.20;;
60336;SDS011;46978;50.288;28.624;2023-10-09T01:05:09;1.97;;;0.77;;
60336;SDS011;46978;50.288;28.624;2023-10-09T01:06:12;2.67;;;0.74;;
60336;SDS011;46978;50.288;28.624;2023-10-09T01:07:14;3.20;;;0.91;;
60336;SDS011;46978;50.288;28.624;2023-10-09T01:08:15;2.27;;;0.76;;
60336;SDS011;46978;50.288;28.624;2023-10-09T01:09:17;2.94;;;1.16;;
60336;SDS011;46978;50.288;28.624;2023-10-09T01:10:19;3.16;;;0.79;;
60336;SDS011;46978;50.288;28.624;2023-10-09T01:11:21;2.79;;;0.90;;
60336;SDS011;46978;50.288;28.624;2023-10-09T01:12:23;2.73;;;0.95;;
60336;SDS011;46978;50.288;28.624;2023-10-09T01:13:29;3.14;;;1.07;;
60336;SDS011;46978;50.288;28.624;2023-10-09T01:14:28;2.98;;;0.98;;
60336;SDS011;46978;50.288;28.624;2023-10-09T01:15:30;1.74;;;0.85;;
60336;SDS011;46978;50.288;28.624;2023-10-09T01:16:32;1.97;;;0.77;;
60336;SDS011;46978;50.288;28.624;2023-10-09T01:17:34;2.62;;;0.90;;
60336;SDS011;46978;50.288;28.624;2023-10-09T01:18:36;2.08;;;0.83;;
60336;SDS011;46978;50.288;28.624;2023-10-09T01:19:38;3.67;;;0.80;;
60336;SDS011;46978;50.288;28.624;2023-10-09T01:20:40;2.21;;;0.89;;
60336;SDS011;46978;50.288;28.624;2023-10-09T01:21:41;1.78;;;0.86;;
60336;SDS011;46978;50.288;28.624;2023-10-09T01:22:43;3.53;;;0.85;;
60336;SDS011;46978;50.288;28.624;2023-10-09T01:23:45;2.34;;;0.70;;
60336;SDS011;46978;50.288;28.624;2023-10-09T01:24:48;2.47;;;0.80;;
60336;SDS011;46978;50.288;28.624;2023-10-09T01:25:49;2.76;;;0.71;;
60336;SDS011;46978;50.288;28.624;2023-10-09T01:26:51;3.05;;;0.83;;
60336;SDS011;46978;50.288;28.624;2023-10-09T01:27:53;3.07;;;0.85;;
60336;SDS011;46978;50.288;28.624;2023-10-09T01:28:54;4.95;;;1.15;;
60336;SDS011;46978;50.288;28.624;2023-10-09T01:29:56;3.40;;;0.82;;
60336;SDS011;46978;50.288;28.624;2023-10-09T01:30:58;2.53;;;0.87;;
60336;SDS011;46978;50.288;28.624;2023-10-09T01:32:00;2.41;;;0.78;;
60336;SDS011;46978;50.288;28.624;2023-10-09T01:33:02;1.79;;;0.85;;
60336;SDS011;46978;50.288;28.624;2023-10-09T01:34:04;3.47;;;0.89;;
60336;SDS011;46978;50.288;28.624;2023-10-09T01:35:06;1.58;;;0.69;;
60336;SDS011;46978;50.288;28.624;2023-10-09T01:36:09;3.12;;;0.90;;
60336;SDS011;46978;50.288;28.624;2023-10-09T01:37:11;3.41;;;0.91;;
60336;SDS011;46978;50.288;28.624;2023-10-09T01:38:15;2.22;;;0.80;;
60336;SDS011;46978;50.288;28.624;2023-10-09T01:39:17;5.45;;;1.06;;
60336;SDS011;46978;50.288;28.624;2023-10-09T01:40:19;2.47;;;0.89;;
60336;SDS011;46978;50.288;28.624;2023-10-09T01:41:21;2.71;;;0.93;;
60336;SDS011;46978;50.288;28.624;2023-10-09T01:42:22;2.60;;;0.88;;
60336;SDS011;46978;50.288;28.624;2023-10-09T01:43:24;3.16;;;0.86;;
60336;SDS011;46978;50.288;28.624;2023-10-09T01:44:26;3.86;;;0.81;;
60336;SDS011;46978;50.288;28.624;2023-10-09T01:45:29;2.15;;;0.92;;
60336;SDS011;46978;50.288;28.624;2023-10-09T01:46:31;3.83;;;0.99;;
60336;SDS011;46978;50.288;28.624;2023-10-09T01:47:32;1.99;;;0.77;;
60336;SDS011;46978;50.288;28.624;2023-10-09T01:48:34;2.43;;;0.94;;
60336;SDS011;46978;50.288;28.624;2023-10-09T01:49:39;3.36;;;0.86;;
60336;SDS011;46978;50.288;28.624;2023-10-09T01:50:41;3.08;;;0.91;;
60336;SDS011;46978;50.288;28.624;2023-10-09T01:51:43;2.47;;;0.89;;
60336;SDS011;46978;50.288;28.624;2023-10-09T01:52:45;4.39;;;0.98;;
60336;SDS011;46978;50.288;28.624;2023-10-09T01:53:47;4.26;;;1.11;;
60336;SDS011;46978;50.288;28.624;2023-10-09T01:54:50;3.03;;;1.10;;
60336;SDS011;46978;50.288;28.624;2023-10-09T01:55:52;2.52;;;0.82;;
60336;SDS011;46978;50.288;28.624;2023-10-09T01:56:54;1.71;;;0.87;;
60336;SDS011;46978;50.288;28.624;2023-10-09T01:57:56;2.76;;;1.00;;
60336;SDS011;46978;50.288;28.624;2023-10-09T01:58:58;2.36;;;0.84;;
60336;SDS011;46978;50.288;28.624;2023-10-09T01:59:59;3.59;;;1.10;;
60336;SDS011;46978;50.288;28.624;2023-10-09T02:01:01;6.87;;;1.14;;
60336;SDS011;46978;50.288;28.624;2023-10-09T02:02:06;3.74;;;1.30;;
60336;SDS011;46978;50.288;28.624;2023-10-09T02:03:08;2.81;;;1.01;;
60336;SDS011;46978;50.288;28.624;2023-10-09T02:04:09;3.45;;;0.87;;
60336;SDS011;46978;50.288;28.624;2023-10-09T02:05:11;3.36;;;0.86;;
60336;SDS011;46978;50.288;28.624;2023-10-09T02:06:13;2.12;;;0.89;;
60336;SDS011;46978;50.288;28.624;2023-10-09T02:07:15;3.78;;;1.09;;
60336;SDS011;46978;50.288;28.624;2023-10-09T02:08:17;3.83;;;1.28;;
60336;SDS011;46978;50.288;28.624;2023-10-09T02:09:19;4.51;;;1.10;;
60336;SDS011;46978;50.288;28.624;2023-10-09T02:10:21;7.79;;;1.05;;
60336;SDS011;46978;50.288;28.624;2023-10-09T02:11:25;2.57;;;0.90;;
60336;SDS011;46978;50.288;28.624;2023-10-09T02:12:26;2.40;;;0.87;;
60336;SDS011;46978;50.288;28.624;2023-10-09T02:13:28;3.14;;;1.08;;
60336;SDS011;46978;50.288;28.624;2023-10-09T02:14:31;3.95;;;1.41;;
60336;SDS011;46978;50.288;28.624;2023-10-09T02:15:33;3.32;;;1.11;;
60336;SDS011;46978;50.288;28.624;2023-10-09T02:16:37;2.24;;;0.92;;
60336;SDS011;46978;50.288;28.624;2023-10-09T02:17:39;2.07;;;0.76;;
60336;SDS011;46978;50.288;28.624;2023-10-09T02:18:41;3.23;;;1.15;;
60336;SDS011;46978;50.288;28.624;2023-10-09T02:19:43;2.52;;;0.83;;
60336;SDS011;46978;50.288;28.624;2023-10-09T02:20:46;5.34;;;0.94;;
60336;SDS011;46978;50.288;28.624;2023-10-09T02:21:52;3.67;;;0.90;;
60336;SDS011;46978;50.288;28.624;2023-10-09T02:22:54;3.75;;;0.93;;
60336;SDS011;46978;50.288;28.624;2023-10-09T02:23:55;2.17;;;0.90;;
60336;SDS011;46978;50.288;28.624;2023-10-09T02:24:57;3.37;;;0.83;;
60336;SDS011;46978;50.288;28.624;2023-10-09T02:25:59;3.80;;;1.09;;
60336;SDS011;46978;50.288;28.624;2023-10-09T02:27:01;5.11;;;0.92;;
60336;SDS011;46978;50.288;28.624;2023-10-09T02:28:03;2.30;;;1.04;;
60336;SDS011;46978;50.288;28.624;2023-10-09T02:29:05;2.83;;;0.94;;
60336;SDS011;46978;50.288;28.624;2023-10-09T02:30:07;3.25;;;0.79;;
60336;SDS011;46978;50.288;28.624;2023-10-09T02:31:10;3.62;;;1.03;;
60336;SDS011;46978;50.288;28.624;2023-10-09T02:32:13;2.61;;;0.88;;
60336;SDS011;46978;50.288;28.624;2023-10-09T02:33:15;3.38;;;1.02;;
60336;SDS011;46978;50.288;28.624;2023-10-09T02:34:17;3.45;;;1.20;;
60336;SDS011;46978;50.288;28.624;2023-10-09T02:35:19;5.00;;;1.10;;
60336;SDS011;46978;50.288;28.624;2023-10-09T02:36:21;5.45;;;1.27;;
60336;SDS011;46978;50.288;28.624;2023-10-09T02:37:23;2.36;;;1.04;;
60336;SDS011;46978;50.288;28.624;2023-10-09T02:38:25;3.13;;;1.09;;
60336;SDS011;46978;50.288;28.624;2023-10-09T02:39:27;3.01;;;1.07;;
60336;SDS011;46978;50.288;28.624;2023-10-09T02:40:29;2.59;;;1.20;;
60336;SDS011;46978;50.288;28.624;2023-10-09T02:41:31;2.46;;;0.90;;
60336;SDS011;46978;50.288;28.624;2023-10-09T02:42:32;4.63;;;1.01;;
60336;SDS011;46978;50.288;28.624;2023-10-09T02:43:35;2.91;;;0.89;;
60336;SDS011;46978;50.288;28.624;2023-10-09T02:44:36;3.55;;;1.10;;
60336;SDS011;46978;50.288;28.624;2023-10-09T02:45:38;5.35;;;1.11;;
60336;SDS011;46978;50.288;28.624;2023-10-09T02:46:40;2.09;;;0.87;;
60336;SDS011;46978;50.288;28.624;2023-10-09T02:47:42;3.44;;;1.10;;
60336;SDS011;46978;50.288;28.624;2023-10-09T02:48:44;4.09;;;0.96;;
60336;SDS011;46978;50.288;28.624;2023-10-09T02:49:47;2.50;;;1.00;;
60336;SDS011;46978;50.288;28.624;2023-10-09T02:50:49;3.63;;;1.11;;
60336;SDS011;46978;50.288;28.624;2023-10-09T02:51:51;2.57;;;0.97;;
60336;SDS011;46978;50.288;28.624;2023-10-09T02:52:52;3.51;;;1.10;;
60336;SDS011;46978;50.288;28.624;2023-10-09T02:53:54;2.51;;;0.92;;
60336;SDS011;46978;50.288;28.624;2023-10-09T02:55:00;2.56;;;0.90;;
60336;SDS011;46978;50.288;28.624;2023-10-09T02:56:02;4.97;;;1.11;;
60336;SDS011;46978;50.288;28.624;2023-10-09T02:57:04;4.87;;;0.95;;
60336;SDS011;46978;50.288;28.624;2023-10-09T02:58:06;5.56;;;0.90;;
60336;SDS011;46978;50.288;28.624;2023-10-09T02:59:08;2.61;;;1.16;;
60336;SDS011;46978;50.288;28.624;2023-10-09T03:00:11;2.72;;;1.02;;
60336;SDS011;46978;50.288;28.624;2023-10-09T03:01:13;4.14;;;1.01;;
60336;SDS011;46978;50.288;28.624;2023-10-09T03:02:15;4.06;;;1.02;;
60336;SDS011;46978;50.288;28.624;2023-10-09T03:03:17;5.13;;;0.97;;
60336;SDS011;46978;50.288;28.624;2023-10-09T03:04:18;2.59;;;0.98;;
60336;SDS011;46978;50.288;28.624;2023-10-09T03:05:20;3.11;;;0.89;;
60336;SDS011;46978;50.288;28.624;2023-10-09T03:06:22;2.94;;;1.05;;
60336;SDS011;46978;50.288;28.624;2023-10-09T03:07:24;3.19;;;1.05;;
60336;SDS011;46978;50.288;28.624;2023-10-09T03:08:26;4.27;;;1.06;;
60336;SDS011;46978;50.288;28.624;2023-10-09T03:09:27;3.74;;;0.91;;
60336;SDS011;46978;50.288;28.624;2023-10-09T03:10:30;4.83;;;1.30;;
60336;SDS011;46978;50.288;28.624;2023-10-09T03:11:31;3.98;;;0.99;;
60336;SDS011;46978;50.288;28.624;2023-10-09T03:12:33;3.51;;;0.90;;
60336;SDS011;46978;50.288;28.624;2023-10-09T03:13:35;4.27;;;1.01;;
60336;SDS011;46978;50.288;28.624;2023-10-09T03:14:37;4.42;;;0.99;;
60336;SDS011;46978;50.288;28.624;2023-10-09T03:15:40;4.88;;;1.11;;
60336;SDS011;46978;50.288;28.624;2023-10-09T03:16:42;2.47;;;0.82;;
60336;SDS011;46978;50.288;28.624;2023-10-09T03:17:43;3.54;;;0.99;;
60336;SDS011;46978;50.288;28.624;2023-10-09T03:18:46;1.99;;;0.89;;
60336;SDS011;46978;50.288;28.624;2023-10-09T03:19:48;3.44;;;0.90;;
60336;SDS011;46978;50.288;28.624;2023-10-09T03:20:50;2.13;;;0.77;;
60336;SDS011;46978;50.288;28.624;2023-10-09T03:21:52;2.43;;;0.96;;
60336;SDS011;46978;50.288;28.624;2023-10-09T03:22:54;2.95;;;0.87;;
60336;SDS011;46978;50.288;28.624;2023-10-09T03:23:56;3.44;;;1.00;;
60336;SDS011;46978;50.288;28.624;2023-10-09T03:24:57;2.73;;;0.82;;
60336;SDS011;46978;50.288;28.624;2023-10-09T03:25:59;4.27;;;1.01;;
60336;SDS011;46978;50.288;28.624;2023-10-09T03:27:01;3.58;;;0.93;;
60336;SDS011;46978;50.288;28.624;2023-10-09T03:28:03;3.05;;;1.01;;
60336;SDS011;46978;50.288;28.624;2023-10-09T03:29:06;3.33;;;0.93;;
60336;SDS011;46978;50.288;28.624;2023-10-09T03:30:09;2.92;;;0.91;;
60336;SDS011;46978;50.288;28.624;2023-10-09T03:31:11;2.49;;;1.02;;
60336;SDS011;46978;50.288;28.624;2023-10-09T03:32:13;3.15;;;0.90;;
60336;SDS011;46978;50.288;28.624;2023-10-09T03:33:15;3.08;;;0.92;;
60336;SDS011;46978;50.288;28.624;2023-10-09T03:34:17;3.14;;;1.03;;
60336;SDS011;46978;50.288;28.624;2023-10-09T03:35:19;2.04;;;1.04;;
60336;SDS011;46978;50.288;28.624;2023-10-09T03:36:22;2.76;;;1.12;;
60336;SDS011;46978;50.288;28.624;2023-10-09T03:37:24;2.51;;;0.86;;
60336;SDS011;46978;50.288;28.624;2023-10-09T03:38:26;2.51;;;0.70;;
60336;SDS011;46978;50.288;28.624;2023-10-09T03:39:28;4.64;;;1.10;;
60336;SDS011;46978;50.288;28.624;2023-10-09T03:40:30;2.63;;;1.04;;
60336;SDS011;46978;50.288;28.624;2023-10-09T03:41:32;2.38;;;0.94;;
60336;SDS011;46978;50.288;28.624;2023-10-09T03:42:33;4.65;;;1.05;;
60336;SDS011;46978;50.288;28.624;2023-10-09T03:43:36;1.50;;;0.81;;
60336;SDS011;46978;50.288;28.624;2023-10-09T03:44:38;3.75;;;0.79;;
60336;SDS011;46978;50.288;28.624;2023-10-09T03:45:40;2.62;;;0.90;;
60336;SDS011;46978;50.288;28.624;2023-10-09T03:46:42;3.12;;;0.91;;
60336;SDS011;46978;50.288;28.624;2023-10-09T03:47:44;2.47;;;0.93;;
60336;SDS011;46978;50.288;28.624;2023-10-09T03:48:49;2.77;;;1.04;;
60336;SDS011;46978;50.288;28.624;2023-10-09T03:49:51;2.71;;;1.07;;
60336;SDS011;46978;50.288;28.624;2023-10-09T03:50:53;2.05;;;0.89;;
60336;SDS011;46978;50.288;28.624;2023-10-09T03:51:55;3.15;;;0.94;;
60336;SDS011;46978;50.288;28.624;2023-10-09T03:52:57;3.97;;;0.97;;
60336;SDS011;46978;50.288;28.624;2023-10-09T03:53:58;3.50;;;1.11;;
60336;SDS011;46978;50.288;28.624;2023-10-09T03:55:00;2.26;;;0.88;;
60336;SDS011;46978;50.288;28.624;2023-10-09T03:56:03;4.23;;;1.18;;
60336;SDS011;46978;50.288;28.624;2023-10-09T03:57:06;3.68;;;1.30;;
60336;SDS011;46978;50.288;28.624;2023-10-09T03:58:07;5.26;;;1.21;;
60336;SDS011;46978;50.288;28.624;2023-10-09T03:59:09;1.98;;;0.82;;
60336;SDS011;46978;50.288;28.624;2023-10-09T04:00:12;3.37;;;1.07;;
60336;SDS011;46978;50.288;28.624;2023-10-09T04:01:15;3.19;;;1.24;;
60336;SDS011;46978;50.288;28.624;2023-10-09T04:02:18;2.66;;;1.24;;
60336;SDS011;46978;50.288;28.624;2023-10-09T04:03:20;2.51;;;1.09;;
60336;SDS011;46978;50.288;28.624;2023-10-09T04:04:21;5.35;;;1.95;;
60336;SDS011;46978;50.288;28.624;2023-10-09T04:05:24;3.04;;;1.34;;
60336;SDS011;46978;50.288;28.624;2023-10-09T04:06:26;2.83;;;1.32;;
60336;SDS011;46978;50.288;28.624;2023-10-09T04:07:29;3.84;;;1.39;;
60336;SDS011;46978;50.288;28.624;2023-10-09T04:08:31;3.07;;;1.36;;
60336;SDS011;46978;50.288;28.624;2023-10-09T04:09:33;5.74;;;2.15;;
60336;SDS011;46978;50.288;28.624;2023-10-09T04:10:35;13.53;;;4.57;;
60336;SDS011;46978;50.288;28.624;2023-10-09T04:11:36;7.51;;;2.84;;
60336;SDS011;46978;50.288;28.624;2023-10-09T04:12:38;5.50;;;1.42;;
60336;SDS011;46978;50.288;28.624;2023-10-09T04:13:40;5.88;;;1.29;;
60336;SDS011;46978;50.288;28.624;2023-10-09T04:14:42;16.54;;;6.88;;
60336;SDS011;46978;50.288;28.624;2023-10-09T04:15:44;19.15;;;7.37;;
60336;SDS011;46978;50.288;28.624;2023-10-09T04:16:46;21.29;;;9.21;;
60336;SDS011;46978;50.288;28.624;2023-10-09T04:17:48;12.33;;;5.53;;
60336;SDS011;46978;50.288;28.624;2023-10-09T04:18:49;6.49;;;2.59;;
60336;SDS011;46978;50.288;28.624;2023-10-09T04:19:51;3.94;;;2.11;;
60336;SDS011;46978;50.288;28.624;2023-10-09T04:20:53;5.65;;;2.55;;
60336;SDS011;46978;50.288;28.624;2023-10-09T04:21:55;6.26;;;2.79;;
60336;SDS011;46978;50.288;28.624;2023-10-09T04:22:57;6.16;;;3.01;;
60336;SDS011;46978;50.288;28.624;2023-10-09T04:23:58;4.25;;;2.12;;
60336;SDS011;46978;50.288;28.624;2023-10-09T04:25:00;4.94;;;1.59;;
60336;SDS011;46978;50.288;28.624;2023-10-09T04:26:02;6.21;;;2.07;;
60336;SDS011;46978;50.288;28.624;2023-10-09T04:27:04;4.43;;;1.35;;
60336;SDS011;46978;50.288;28.624;2023-10-09T04:28:05;3.09;;;1.24;;
60336;SDS011;46978;50.288;28.624;2023-10-09T04:29:07;3.66;;;1.01;;
60336;SDS011;46978;50.288;28.624;2023-10-09T04:30:09;3.40;;;1.11;;
60336;SDS011;46978;50.288;28.624;2023-10-09T04:31:11;2.32;;;0.78;;
60336;SDS011;46978;50.288;28.624;2023-10-09T04:32:13;2.50;;;1.03;;
60336;SDS011;46978;50.288;28.624;2023-10-09T04:33:15;2.02;;;0.85;;
60336;SDS011;46978;50.288;28.624;2023-10-09T04:35:38;3.01;;;0.77;;
60336;SDS011;46978;50.288;28.624;2023-10-09T04:36:40;1.51;;;0.73;;
60336;SDS011;46978;50.288;28.624;2023-10-09T04:37:42;2.47;;;0.80;;
60336;SDS011;46978;50.288;28.624;2023-10-09T04:38:44;2.13;;;0.93;;
60336;SDS011;46978;50.288;28.624;2023-10-09T04:39:46;3.76;;;1.02;;
60336;SDS011;46978;50.288;28.624;2023-10-09T04:40:48;3.74;;;1.41;;
60336;SDS011;46978;50.288;28.624;2023-10-09T04:41:49;2.92;;;1.56;;
60336;SDS011;46978;50.288;28.624;2023-10-09T04:42:51;4.21;;;2.01;;
60336;SDS011;46978;50.288;28.624;2023-10-09T04:43:55;3.89;;;2.12;;
60336;SDS011;46978;50.288;28.624;2023-10-09T04:44:57;4.54;;;1.64;;
60336;SDS011;46978;50.288;28.624;2023-10-09T04:45:59;4.03;;;1.74;;
60336;SDS011;46978;50.288;28.624;2023-10-09T04:47:01;4.43;;;1.53;;
60336;SDS011;46978;50.288;28.624;2023-10-09T04:48:03;2.21;;;1.01;;
60336;SDS011;46978;50.288;28.624;2023-10-09T04:49:05;3.13;;;0.99;;
60336;SDS011;46978;50.288;28.624;2023-10-09T04:50:08;2.69;;;1.07;;
60336;SDS011;46978;50.288;28.624;2023-10-09T04:51:11;4.49;;;1.41;;
60336;SDS011;46978;50.288;28.624;2023-10-09T04:52:18;2.03;;;0.89;;
60336;SDS011;46978;50.288;28.624;2023-10-09T04:53:20;2.97;;;1.01;;
60336;SDS011;46978;50.288;28.624;2023-10-09T04:54:22;2.24;;;0.78;;
60336;SDS011;46978;50.288;28.624;2023-10-09T04:55:23;3.74;;;1.02;;
60336;SDS011;46978;50.288;28.624;2023-10-09T04:56:25;2.14;;;0.94;;
60336;SDS011;46978;50.288;28.624;2023-10-09T04:57:27;2.34;;;1.00;;
60336;SDS011;46978;50.288;28.624;2023-10-09T04:58:29;2.04;;;0.80;;
60336;SDS011;46978;50.288;28.624;2023-10-09T04:59:31;3.21;;;0.92;;
60336;SDS011;46978;50.288;28.624;2023-10-09T05:00:33;3.75;;;1.33;;
60336;SDS011;46978;50.288;28.624;2023-10-09T05:01:34;2.62;;;0.87;;
60336;SDS011;46978;50.288;28.624;2023-10-09T05:02:36;4.09;;;0.88;;
60336;SDS011;46978;50.288;28.624;2023-10-09T05:03:38;3.26;;;1.00;;
60336;SDS011;46978;50.288;28.624;2023-10-09T05:04:41;2.72;;;0.95;;
60336;SDS011;46978;50.288;28.624;2023-10-09T05:05:42;2.33;;;1.04;;
60336;SDS011;46978;50.288;28.624;2023-10-09T05:06:44;2.53;;;0.83;;
60336;SDS011;46978;50.288;28.624;2023-10-09T05:07:46;3.10;;;0.71;;
60336;SDS011;46978;50.288;28.624;2023-10-09T05:08:48;2.36;;;0.63;;
60336;SDS011;46978;50.288;28.624;2023-10-09T05:09:50;4.03;;;1.11;;
60336;SDS011;46978;50.288;28.624;2023-10-09T05:10:59;2.47;;;0.94;;
60336;SDS011;46978;50.288;28.624;2023-10-09T05:13:04;4.58;;;0.94;;
60336;SDS011;46978;50.288;28.624;2023-10-09T05:14:06;2.87;;;1.01;;
60336;SDS011;46978;50.288;28.624;2023-10-09T05:15:08;3.34;;;1.06;;
60336;SDS011;46978;50.288;28.624;2023-10-09T05:17:16;2.32;;;0.99;;
60336;SDS011;46978;50.288;28.624;2023-10-09T05:18:18;2.14;;;0.80;;
60336;SDS011;46978;50.288;28.624;2023-10-09T05:19:24;2.43;;;0.99;;
60336;SDS011;46978;50.288;28.624;2023-10-09T05:20:24;1.98;;;0.85;;
60336;SDS011;46978;50.288;28.624;2023-10-09T05:21:30;1.83;;;0.81;;
60336;SDS011;46978;50.288;28.624;2023-10-09T05:22:34;4.25;;;1.07;;
60336;SDS011;46978;50.288;28.624;2023-10-09T05:23:35;2.41;;;0.82;;
60336;SDS011;46978;50.288;28.624;2023-10-09T05:24:37;2.10;;;0.78;;
60336;SDS011;46978;50.288;28.624;2023-10-09T05:25:39;3.02;;;0.94;;
60336;SDS011;46978;50.288;28.624;2023-10-09T05:26:45;3.09;;;1.04;;
60336;SDS011;46978;50.288;28.624;2023-10-09T05:27:51;2.03;;;0.84;;
60336;SDS011;46978;50.288;28.624;2023-10-09T05:28:52;2.88;;;1.13;;
60336;SDS011;46978;50.288;28.624;2023-10-09T05:29:54;4.15;;;1.14;;
60336;SDS011;46978;50.288;28.624;2023-10-09T05:30:59;2.42;;;1.01;;
60336;SDS011;46978;50.288;28.624;2023-10-09T05:32:04;2.48;;;1.11;;
60336;SDS011;46978;50.288;28.624;2023-10-09T05:33:07;2.27;;;0.90;;
60336;SDS011;46978;50.288;28.624;2023-10-09T05:34:08;2.29;;;0.80;;
60336;SDS011;46978;50.288;28.624;2023-10-09T05:35:10;2.05;;;0.94;;
60336;SDS011;46978;50.288;28.624;2023-10-09T05:36:12;2.92;;;1.12;;
60336;SDS011;46978;50.288;28.624;2023-10-09T05:37:14;2.32;;;0.90;;
60336;SDS011;46978;50.288;28.624;2023-10-09T05:38:16;2.74;;;1.09;;
60336;SDS011;46978;50.288;28.624;2023-10-09T05:39:17;2.64;;;1.19;;
60336;SDS011;46978;50.288;28.624;2023-10-09T05:40:19;2.61;;;1.09;;
60336;SDS011;46978;50.288;28.624;2023-10-09T05:41:21;5.00;;;1.53;;
60336;SDS011;46978;50.288;28.624;2023-10-09T05:42:23;2.96;;;1.00;;
60336;SDS011;46978;50.288;28.624;2023-10-09T05:43:25;4.70;;;1.26;;
60336;SDS011;46978;50.288;28.624;2023-10-09T05:44:26;4.31;;;1.14;;
60336;SDS011;46978;50.288;28.624;2023-10-09T05:45:28;4.48;;;1.28;;
60336;SDS011;46978;50.288;28.624;2023-10-09T05:46:30;3.57;;;1.11;;
60336;SDS011;46978;50.288;28.624;2023-10-09T05:47:32;3.89;;;1.16;;
60336;SDS011;46978;50.288;28.624;2023-10-09T05:48:33;3.16;;;1.40;;
60336;SDS011;46978;50.288;28.624;2023-10-09T05:49:35;2.71;;;1.11;;
60336;SDS011;46978;50.288;28.624;2023-10-09T05:50:37;1.73;;;0.82;;
60336;SDS011;46978;50.288;28.624;2023-10-09T05:51:39;3.86;;;1.04;;
60336;SDS011;46978;50.288;28.624;2023-10-09T05:52:41;3.29;;;1.38;;
60336;SDS011;46978;50.288;28.624;2023-10-09T05:53:42;3.29;;;1.02;;
60336;SDS011;46978;50.288;28.624;2023-10-09T05:54:44;2.36;;;0.91;;
60336;SDS011;46978;50.288;28.624;2023-10-09T05:55:46;2.99;;;0.99;;
60336;SDS011;46978;50.288;28.624;2023-10-09T05:56:47;4.46;;;1.07;;
60336;SDS011;46978;50.288;28.624;2023-10-09T05:57:49;3.58;;;1.11;;
60336;SDS011;46978;50.288;28.624;2023-10-09T05:58:55;3.76;;;1.02;;
60336;SDS011;46978;50.288;28.624;2023-10-09T05:59:56;3.80;;;0.96;;
60336;SDS011;46978;50.288;28.624;2023-10-09T06:00:58;2.89;;;1.00;;
60336;SDS011;46978;50.288;28.624;2023-10-09T06:02:00;5.40;;;1.38;;
60336;SDS011;46978;50.288;28.624;2023-10-09T06:03:02;3.96;;;1.26;;
60336;SDS011;46978;50.288;28.624;2023-10-09T06:04:04;3.97;;;1.29;;
60336;SDS011;46978;50.288;28.624;2023-10-09T06:05:06;4.66;;;1.34;;
60336;SDS011;46978;50.288;28.624;2023-10-09T06:06:08;2.73;;;1.03;;
60336;SDS011;46978;50.288;28.624;2023-10-09T06:07:10;3.44;;;1.15;;
60336;SDS011;46978;50.288;28.624;2023-10-09T06:08:12;2.35;;;1.24;;
60336;SDS011;46978;50.288;28.624;2023-10-09T06:09:14;4.22;;;1.67;;
60336;SDS011;46978;50.288;28.624;2023-10-09T06:10:16;3.47;;;1.14;;
60336;SDS011;46978;50.288;28.624;2023-10-09T06:11:18;4.44;;;1.27;;
60336;SDS011;46978;50.288;28.624;2023-10-09T06:12:20;2.90;;;1.07;;
60336;SDS011;46978;50.288;28.624;2023-10-09T06:13:22;2.46;;;1.09;;